createdAt,value
2023-05-14T00:00:27.116Z,72.52
2023-05-14T00:03:20.527Z,72.41
2023-05-14T00:05:53.850Z,72.58
2023-05-14T00:08:27.075Z,72.60
2023-05-14T00:11:00.543Z,72.64
2023-05-14T00:13:34.192Z,72.91
2023-05-14T00:16:08.098Z,72.71
2023-05-14T00:18:41.351Z,72.80
2023-05-14T00:21:14.614Z,72.95
2023-05-14T00:23:48.053Z,73.48
2023-05-14T00:26:21.701Z,73.48
2023-05-14T00:28:55.127Z,73.75
2023-05-14T00:31:28.314Z,74.04
2023-05-14T00:34:01.749Z,74.07
2023-05-14T00:36:35.389Z,74.17
2023-05-14T00:39:09.131Z,73.81
2023-05-14T00:41:42.236Z,73.76
2023-05-14T00:44:15.354Z,74.16
2023-05-14T00:46:49.245Z,74.24
2023-05-14T00:49:22.905Z,74.67
2023-05-14T00:51:59.255Z,75.06
2023-05-14T00:54:33.376Z,74.94
2023-05-14T00:57:08.143Z,74.92
2023-05-14T00:59:42.986Z,74.68
2023-05-14T01:02:16.291Z,74.72
2023-05-14T01:04:49.922Z,74.66
2023-05-14T01:07:32.097Z,74.97
2023-05-14T01:10:10.349Z,74.92
2023-05-14T01:12:49.355Z,75.02
2023-05-14T01:15:27.424Z,74.93
2023-05-14T01:18:08.948Z,74.91
2023-05-14T01:20:42.412Z,74.90
2023-05-14T01:23:15.861Z,74.89
2023-05-14T01:25:50.145Z,74.85
2023-05-14T01:28:30.866Z,74.78
2023-05-14T01:31:10.006Z,74.61
2023-05-14T01:33:46.007Z,74.66
2023-05-14T01:36:19.566Z,74.74
2023-05-14T01:38:56.015Z,74.72
2023-05-14T01:41:31.462Z,74.37
2023-05-14T01:44:05.078Z,74.61
2023-05-14T01:46:38.801Z,74.36
2023-05-14T01:49:12.211Z,74.32
2023-05-14T01:51:45.908Z,74.23
2023-05-14T01:54:19.250Z,74.21
2023-05-14T01:56:53.308Z,74.08
2023-05-14T01:59:26.773Z,73.96
2023-05-14T02:02:00.329Z,74.27
2023-05-14T02:04:33.728Z,74.51
2023-05-14T02:07:07.242Z,74.27
2023-05-14T02:09:40.387Z,74.48
2023-05-14T02:12:14.382Z,74.26
2023-05-14T02:14:47.410Z,74.42
2023-05-14T02:17:21.564Z,74.46
2023-05-14T02:19:54.943Z,74.26
2023-05-14T02:22:28.610Z,74.57
2023-05-14T02:25:02.127Z,74.44
2023-05-14T02:27:35.805Z,74.36
2023-05-14T02:30:11.381Z,74.45
2023-05-14T02:32:46.364Z,74.37
2023-05-14T02:35:20.325Z,74.51
2023-05-14T02:37:54.612Z,74.53
2023-05-14T02:40:28.352Z,74.55
2023-05-14T02:43:01.727Z,74.67
2023-05-14T02:45:35.347Z,74.66
2023-05-14T02:48:09.643Z,74.79
2023-05-14T02:50:43.362Z,74.98
2023-05-14T02:53:16.742Z,75.17
2023-05-14T02:55:52.548Z,75.32
2023-05-14T02:58:28.849Z,75.32
2023-05-14T03:01:02.424Z,75.61
2023-05-14T03:03:36.826Z,75.53
2023-05-14T03:06:11.096Z,75.77
2023-05-14T03:08:44.734Z,75.98
2023-05-14T03:11:18.027Z,75.89
2023-05-14T03:13:51.422Z,75.86
2023-05-14T03:16:24.970Z,76.06
2023-05-14T03:18:58.770Z,75.99
2023-05-14T03:21:32.161Z,76.49
2023-05-14T03:24:05.568Z,76.33
2023-05-14T03:26:38.915Z,76.17
2023-05-14T03:29:12.138Z,76.32
2023-05-14T03:31:46.772Z,76.31
2023-05-14T03:34:20.325Z,76.57
2023-05-14T03:36:53.811Z,76.68
2023-05-14T03:39:27.012Z,76.45
2023-05-14T03:42:01.144Z,76.55
2023-05-14T03:44:34.504Z,76.53
2023-05-14T03:47:08.295Z,76.42
2023-05-14T03:49:41.891Z,76.80
2023-05-14T03:52:15.718Z,77.03
2023-05-14T03:54:50.273Z,76.92
2023-05-14T03:57:23.727Z,76.95
2023-05-14T03:59:57.216Z,76.89
2023-05-14T04:02:30.647Z,76.64
2023-05-14T04:05:04.582Z,76.67
2023-05-14T04:07:37.866Z,76.70
2023-05-14T04:10:12.924Z,76.46
2023-05-14T04:12:46.182Z,76.12
2023-05-14T04:15:19.655Z,76.04
2023-05-14T04:17:52.748Z,75.99
2023-05-14T04:20:26.197Z,75.54
2023-05-14T04:22:59.673Z,75.01
2023-05-14T04:25:33.017Z,74.62
2023-05-14T04:28:06.533Z,75.11
2023-05-14T04:30:40.854Z,74.63
2023-05-14T04:33:14.289Z,74.72
2023-05-14T04:35:48.658Z,74.12
2023-05-14T04:38:22.093Z,74.37
2023-05-14T04:40:55.376Z,73.80
2023-05-14T04:43:28.589Z,73.42
2023-05-14T04:46:02.302Z,72.81
2023-05-14T04:48:35.923Z,72.46
2023-05-14T04:51:09.328Z,72.42
2023-05-14T04:53:42.942Z,72.33
2023-05-14T04:56:16.162Z,72.05
2023-05-14T04:58:49.395Z,71.48
2023-05-14T05:01:23.673Z,70.29
2023-05-14T05:03:58.102Z,70.15
2023-05-14T05:06:31.892Z,70.12
2023-05-14T05:09:05.604Z,69.18
2023-05-14T05:11:39.415Z,69.02
2023-05-14T05:14:12.806Z,68.99
2023-05-14T05:16:46.495Z,69.27
2023-05-14T05:19:26.461Z,69.25
2023-05-14T05:22:06.657Z,67.86
2023-05-14T05:24:40.616Z,67.09
2023-05-14T05:27:14.606Z,67.00
2023-05-14T05:29:48.151Z,66.38
2023-05-14T05:32:22.042Z,65.72
2023-05-14T05:34:55.525Z,65.35
2023-05-14T05:37:28.812Z,65.97
2023-05-14T05:40:02.307Z,64.13
2023-05-14T05:42:35.946Z,63.85
2023-05-14T05:45:11.177Z,62.88
2023-05-14T05:47:44.522Z,61.77
2023-05-14T05:50:19.812Z,61.35
2023-05-14T05:52:53.688Z,60.52
2023-05-14T05:55:27.097Z,59.24
2023-05-14T05:58:00.463Z,58.52
2023-05-14T06:00:34.246Z,59.00
2023-05-14T06:03:07.831Z,58.94
2023-05-14T06:05:41.946Z,57.82
2023-05-14T06:08:16.737Z,56.77
2023-05-14T06:10:50.247Z,56.98
2023-05-14T06:13:23.670Z,56.98
2023-05-14T06:15:57.124Z,56.20
2023-05-14T06:18:30.812Z,55.59
2023-05-14T06:21:04.075Z,54.80
2023-05-14T06:23:37.418Z,53.27
2023-05-14T06:26:11.625Z,53.61
2023-05-14T06:28:45.065Z,52.94
2023-05-14T06:31:19.563Z,52.30
2023-05-14T06:33:53.049Z,52.26
2023-05-14T06:36:26.566Z,53.83
2023-05-14T06:39:00.773Z,52.41
2023-05-14T06:41:48.376Z,51.18
2023-05-14T06:44:30.645Z,51.45
2023-05-14T06:47:04.158Z,50.78
2023-05-14T06:49:37.863Z,50.05
2023-05-14T06:52:11.601Z,49.71
2023-05-14T06:54:45.086Z,50.77
2023-05-14T06:57:18.378Z,49.42
2023-05-14T06:59:51.672Z,48.36
2023-05-14T07:02:24.885Z,47.87
2023-05-14T07:04:58.354Z,48.02
2023-05-14T07:07:32.378Z,48.15
2023-05-14T07:10:06.811Z,48.92
2023-05-14T07:12:40.523Z,46.62
2023-05-14T07:15:15.166Z,46.56
2023-05-14T07:17:48.840Z,45.91
2023-05-14T07:20:24.421Z,45.55
2023-05-14T07:22:58.103Z,46.31
2023-05-14T07:25:31.571Z,46.97
2023-05-14T07:28:05.056Z,45.50
2023-05-14T07:30:38.321Z,46.78
2023-05-14T07:33:11.663Z,47.16
2023-05-14T07:35:48.065Z,47.94
2023-05-14T07:38:20.923Z,44.59
2023-05-14T07:40:54.730Z,45.07
2023-05-14T07:43:28.572Z,42.60
2023-05-14T07:46:02.391Z,43.90
2023-05-14T07:48:36.264Z,42.30
2023-05-14T07:51:10.039Z,42.94
2023-05-14T07:53:43.373Z,41.96
2023-05-14T07:56:17.786Z,43.00
2023-05-14T07:58:51.970Z,42.62
2023-05-14T08:01:26.669Z,42.91
2023-05-14T08:04:00.445Z,42.04
2023-05-14T08:06:35.194Z,41.60
2023-05-14T08:09:09.087Z,42.68
2023-05-14T08:11:43.015Z,42.03
2023-05-14T08:14:16.484Z,40.06
2023-05-14T08:16:50.409Z,40.85
2023-05-14T08:19:24.250Z,38.68
2023-05-14T08:21:57.971Z,39.72
2023-05-14T08:24:31.745Z,38.70
2023-05-14T08:27:05.415Z,34.77
2023-05-14T08:29:39.071Z,33.46
2023-05-14T08:32:22.836Z,32.15
2023-05-14T08:34:58.100Z,32.56
2023-05-14T08:37:32.044Z,32.95
2023-05-14T08:40:06.038Z,32.78
2023-05-14T08:42:43.540Z,32.43
2023-05-14T08:45:20.777Z,33.51
2023-05-14T08:47:54.746Z,33.95
2023-05-14T08:50:30.589Z,33.68
2023-05-14T08:53:04.443Z,32.61
2023-05-14T08:55:39.275Z,32.40
2023-05-14T08:58:12.930Z,30.68
2023-05-14T09:00:46.559Z,28.79
2023-05-14T09:03:20.833Z,28.39
2023-05-14T09:05:55.334Z,27.87
2023-05-14T09:08:29.114Z,26.62
2023-05-14T09:11:02.617Z,25.09
2023-05-14T09:13:38.278Z,21.20
2023-05-14T09:16:12.037Z,20.88
2023-05-14T09:18:49.285Z,20.70
2023-05-14T09:21:25.203Z,21.93
2023-05-14T09:24:01.304Z,20.49
2023-05-14T09:26:35.785Z,19.09
2023-05-14T09:29:09.975Z,19.18
2023-05-14T09:31:43.330Z,18.84
2023-05-14T09:34:27.602Z,18.71
2023-05-14T09:37:02.774Z,20.54
2023-05-14T09:39:38.182Z,19.87
2023-05-14T09:42:11.892Z,21.50
2023-05-14T09:44:47.741Z,22.79
2023-05-14T09:47:21.753Z,22.41
2023-05-14T09:49:56.050Z,22.53
2023-05-14T09:52:29.324Z,23.08
2023-05-14T09:55:03.313Z,22.77
2023-05-14T09:57:36.860Z,22.76
2023-05-14T10:00:16.410Z,23.84
2023-05-14T10:02:53.534Z,24.87
2023-05-14T10:05:27.920Z,24.64
2023-05-14T10:08:05.256Z,24.06
2023-05-14T10:10:39.372Z,25.85
2023-05-14T10:13:15.538Z,26.59
2023-05-14T10:15:53.788Z,26.55
2023-05-14T10:18:32.175Z,25.93
2023-05-14T10:21:08.322Z,25.71
2023-05-14T10:23:43.409Z,25.22
2023-05-14T10:26:17.693Z,24.45
2023-05-14T10:28:51.380Z,24.30
2023-05-14T10:31:46.596Z,24.57
2023-05-14T10:34:41.382Z,26.15
2023-05-14T10:37:16.942Z,26.16
2023-05-14T10:39:52.266Z,27.26
2023-05-14T10:42:25.062Z,27.71
2023-05-14T10:45:01.917Z,27.88
2023-05-14T10:47:37.745Z,28.24
2023-05-14T10:50:10.616Z,27.39
2023-05-14T10:52:46.904Z,26.21
2023-05-14T10:55:22.725Z,27.25
2023-05-14T10:58:01.806Z,27.01
2023-05-14T11:00:37.149Z,26.87
2023-05-14T11:03:13.643Z,25.05
2023-05-14T11:05:47.975Z,25.32
2023-05-14T11:08:25.974Z,25.33
2023-05-14T11:11:02.869Z,26.38
2023-05-14T11:13:37.646Z,27.11
2023-05-14T11:16:22.869Z,28.28
2023-05-14T11:19:06.737Z,26.77
2023-05-14T11:21:40.575Z,27.23
2023-05-14T11:24:14.545Z,26.56
2023-05-14T11:26:48.554Z,26.95
2023-05-14T11:29:21.927Z,27.62
2023-05-14T11:31:56.135Z,28.12
2023-05-14T11:34:30.417Z,28.08
2023-05-14T11:37:06.592Z,28.04
2023-05-14T11:39:39.139Z,28.87
2023-05-14T11:42:17.679Z,28.81
2023-05-14T11:44:52.504Z,28.34
2023-05-14T11:47:26.335Z,28.23
2023-05-14T11:50:00.732Z,29.12
2023-05-14T11:52:40.012Z,28.55
2023-05-14T11:55:16.277Z,27.34
2023-05-14T11:57:49.710Z,27.49
2023-05-14T12:00:25.049Z,28.55
2023-05-14T12:02:58.846Z,29.15
2023-05-14T12:05:32.671Z,30.41
2023-05-14T12:08:21.271Z,29.56
2023-05-14T12:10:54.799Z,29.34
2023-05-14T12:13:31.005Z,30.26
2023-05-14T12:16:05.795Z,30.08
2023-05-14T12:18:39.498Z,31.19
2023-05-14T12:21:13.563Z,31.39
2023-05-14T12:23:47.180Z,31.24
2023-05-14T12:26:23.901Z,31.76
2023-05-14T12:29:01.260Z,31.16
2023-05-14T12:31:36.774Z,30.66
2023-05-14T12:34:10.089Z,30.59
2023-05-14T12:36:43.653Z,30.70
2023-05-14T12:39:16.912Z,29.34
2023-05-14T12:41:50.282Z,29.71
2023-05-14T12:44:24.038Z,29.00
2023-05-14T12:46:58.031Z,29.07
2023-05-14T12:49:31.412Z,29.69
2023-05-14T12:52:19.875Z,29.07
2023-05-14T12:54:58.332Z,29.61
2023-05-14T12:57:31.993Z,28.10
2023-05-14T13:00:07.187Z,27.88
2023-05-14T13:02:42.376Z,27.21
2023-05-14T13:05:17.695Z,27.59
2023-05-14T13:07:51.204Z,28.03
2023-05-14T13:10:24.973Z,28.90
2023-05-14T13:12:58.503Z,28.90
2023-05-14T13:15:34.453Z,30.01
2023-05-14T13:18:09.684Z,30.78
2023-05-14T13:20:43.915Z,31.43
2023-05-14T13:23:17.646Z,31.88
2023-05-14T13:25:51.456Z,32.26
2023-05-14T13:28:24.903Z,32.83
2023-05-14T13:31:12.616Z,32.27
2023-05-14T13:33:47.001Z,31.89
2023-05-14T13:36:20.440Z,33.10
2023-05-14T13:38:53.933Z,33.20
2023-05-14T13:41:28.683Z,33.86
2023-05-14T13:44:04.552Z,33.93
2023-05-14T13:46:39.526Z,33.78
2023-05-14T13:49:13.294Z,34.06
2023-05-14T13:51:46.713Z,33.72
2023-05-14T13:54:20.213Z,33.65
2023-05-14T13:56:53.772Z,33.90
2023-05-14T13:59:28.221Z,34.35
2023-05-14T14:02:01.584Z,33.83
2023-05-14T14:04:35.242Z,34.35
2023-05-14T14:07:09.362Z,33.96
2023-05-14T14:09:42.892Z,33.99
2023-05-14T14:12:16.348Z,33.79
2023-05-14T14:14:50.203Z,33.41
2023-05-14T14:17:23.633Z,32.90
2023-05-14T14:19:56.986Z,32.24
2023-05-14T14:22:30.255Z,32.42
2023-05-14T14:25:03.853Z,32.62
2023-05-14T14:27:40.139Z,33.24
2023-05-14T14:30:17.033Z,33.64
2023-05-14T14:32:51.192Z,33.32
2023-05-14T14:35:24.614Z,32.98
2023-05-14T14:37:58.433Z,33.23
2023-05-14T14:40:31.875Z,33.99
2023-05-14T14:43:05.376Z,34.17
2023-05-14T14:45:39.003Z,34.56
2023-05-14T14:48:31.659Z,34.52
2023-05-14T14:51:05.445Z,34.54
2023-05-14T14:53:40.700Z,35.13
2023-05-14T14:56:14.099Z,35.57
2023-05-14T14:58:47.524Z,35.47
2023-05-14T15:01:21.764Z,36.09
2023-05-14T15:03:55.307Z,35.68
2023-05-14T15:06:29.926Z,36.27
2023-05-14T15:09:03.406Z,36.08
2023-05-14T15:11:37.778Z,35.67
2023-05-14T15:14:11.171Z,36.07
2023-05-14T15:16:44.927Z,36.05
2023-05-14T15:19:18.735Z,36.24
2023-05-14T15:21:52.579Z,36.29
2023-05-14T15:24:26.495Z,36.03
2023-05-14T15:26:59.953Z,36.14
2023-05-14T15:29:33.378Z,36.01
2023-05-14T15:32:07.526Z,36.28
2023-05-14T15:34:40.754Z,36.33
2023-05-14T15:37:14.451Z,36.88
2023-05-14T15:39:47.915Z,37.51
2023-05-14T15:42:21.284Z,37.32
2023-05-14T15:44:54.692Z,37.17
2023-05-14T15:47:28.353Z,36.78
2023-05-14T15:50:02.246Z,36.73
2023-05-14T15:52:36.135Z,37.21
2023-05-14T15:55:11.888Z,37.21
2023-05-14T15:57:45.568Z,37.09
2023-05-14T16:00:20.569Z,37.50
2023-05-14T16:02:54.725Z,37.47
2023-05-14T16:05:28.481Z,37.52
2023-05-14T16:08:02.694Z,37.23
2023-05-14T16:10:36.310Z,37.43
2023-05-14T16:13:09.748Z,37.50
2023-05-14T16:15:43.367Z,37.48
2023-05-14T16:18:16.844Z,37.91
2023-05-14T16:20:50.189Z,38.20
2023-05-14T16:23:24.011Z,38.40
2023-05-14T16:26:02.308Z,38.72
2023-05-14T16:28:35.891Z,39.12
2023-05-14T16:31:09.291Z,40.17
2023-05-14T16:33:42.916Z,40.44
2023-05-14T16:36:16.872Z,40.55
2023-05-14T16:39:06.848Z,40.65
2023-05-14T16:41:41.321Z,41.13
2023-05-14T16:44:14.586Z,41.22
2023-05-14T16:46:48.405Z,41.39
2023-05-14T16:49:22.799Z,41.42
2023-05-14T16:51:56.461Z,41.53
2023-05-14T16:54:30.096Z,41.40
2023-05-14T16:57:03.524Z,42.28
2023-05-14T16:59:36.956Z,42.80
2023-05-14T17:02:10.232Z,43.32
2023-05-14T17:04:43.722Z,43.47
2023-05-14T17:07:17.273Z,43.79
2023-05-14T17:09:51.357Z,43.73
2023-05-14T17:12:28.368Z,43.98
2023-05-14T17:15:05.225Z,43.93
2023-05-14T17:17:39.222Z,44.16
2023-05-14T17:20:16.779Z,44.85
2023-05-14T17:22:51.306Z,45.21
2023-05-14T17:25:26.948Z,45.22
2023-05-14T17:28:00.808Z,45.43
2023-05-14T17:30:34.629Z,45.51
2023-05-14T17:33:08.772Z,45.93
2023-05-14T17:35:44.130Z,46.63
2023-05-14T17:38:18.545Z,47.63
2023-05-14T17:40:52.069Z,48.28
2023-05-14T17:43:26.600Z,48.43
2023-05-14T17:46:01.154Z,47.73
2023-05-14T17:48:34.699Z,47.96
2023-05-14T17:51:08.308Z,48.98
2023-05-14T17:53:41.675Z,49.69
2023-05-14T17:56:17.553Z,50.36
2023-05-14T17:58:52.387Z,50.59
2023-05-14T18:01:26.096Z,50.68
2023-05-14T18:03:59.719Z,51.21
2023-05-14T18:06:33.402Z,51.98
2023-05-14T18:09:07.367Z,51.62
2023-05-14T18:11:40.994Z,52.15
2023-05-14T18:14:14.738Z,51.63
2023-05-14T18:16:48.724Z,52.36
2023-05-14T18:19:22.309Z,53.08
2023-05-14T18:21:57.267Z,52.41
2023-05-14T18:24:32.494Z,51.90
2023-05-14T18:27:06.675Z,51.63
2023-05-14T18:29:40.500Z,51.66
2023-05-14T18:32:15.137Z,51.58
2023-05-14T18:34:49.310Z,51.78
2023-05-14T18:37:24.944Z,52.08
2023-05-14T18:40:07.541Z,53.18
2023-05-14T18:42:50.017Z,53.59
2023-05-14T18:45:25.529Z,54.06
2023-05-14T18:48:01.025Z,54.83
2023-05-14T18:50:39.295Z,55.63
2023-05-14T18:53:14.499Z,57.31
2023-05-14T18:55:48.096Z,57.71
2023-05-14T18:58:22.243Z,57.68
2023-05-14T19:00:58.044Z,58.21
2023-05-14T19:03:32.205Z,58.81
2023-05-14T19:06:05.981Z,58.67
2023-05-14T19:08:40.058Z,58.49
2023-05-14T19:11:13.697Z,59.25
2023-05-14T19:13:49.894Z,60.82
2023-05-14T19:16:24.458Z,62.01
2023-05-14T19:18:58.071Z,62.51
2023-05-14T19:21:38.050Z,71.56
2023-05-14T19:24:21.231Z,78.11
2023-05-14T19:26:58.898Z,79.25
2023-05-14T19:29:34.282Z,80.49
2023-05-14T19:32:10.724Z,81.95
2023-05-14T19:34:45.509Z,83.08
2023-05-14T19:37:20.243Z,83.43
2023-05-14T19:39:54.555Z,84.23
2023-05-14T19:42:29.242Z,84.49
2023-05-14T19:45:04.178Z,84.97
2023-05-14T19:47:37.849Z,85.19
2023-05-14T19:50:13.141Z,85.14
2023-05-14T19:52:46.650Z,84.94
2023-05-14T19:55:22.068Z,85.30
2023-05-14T19:58:06.411Z,85.57
2023-05-14T20:00:44.780Z,85.39
2023-05-14T20:03:23.886Z,85.35
2023-05-14T20:06:01.612Z,85.95
2023-05-14T20:08:38.466Z,86.29
2023-05-14T20:11:16.303Z,87.69
2023-05-14T20:13:50.450Z,87.11
2023-05-14T20:16:24.476Z,87.33
2023-05-14T20:18:58.256Z,87.69
2023-05-14T20:21:32.314Z,87.94
2023-05-14T20:24:06.891Z,87.90
2023-05-14T20:26:41.327Z,88.07
2023-05-14T20:29:16.228Z,87.90
2023-05-14T20:31:49.941Z,88.51
2023-05-14T20:34:23.393Z,88.50
2023-05-14T20:36:59.488Z,88.63
2023-05-14T20:39:33.696Z,88.62
2023-05-14T20:42:08.239Z,88.74
2023-05-14T20:44:42.047Z,88.74
2023-05-14T20:47:20.939Z,88.36
2023-05-14T20:49:55.099Z,88.50
2023-05-14T20:52:28.471Z,88.48
2023-05-14T20:55:02.504Z,88.75
2023-05-14T20:57:36.372Z,88.86
2023-05-14T21:00:12.792Z,89.61
2023-05-14T21:02:44.875Z,91.52
2023-05-14T21:05:18.628Z,92.28
2023-05-14T21:07:52.019Z,92.53
2023-05-14T21:10:26.136Z,91.68
2023-05-14T21:13:00.696Z,91.32
2023-05-14T21:15:34.528Z,90.93
2023-05-14T21:18:08.487Z,90.07
2023-05-14T21:20:42.032Z,90.17
2023-05-14T21:23:16.079Z,90.28
2023-05-14T21:25:50.155Z,90.42
2023-05-14T21:28:24.343Z,90.42
2023-05-14T21:30:57.814Z,90.54
2023-05-14T21:33:31.332Z,90.56
2023-05-14T21:36:04.799Z,90.49
2023-05-14T21:38:38.425Z,90.87
2023-05-14T21:41:11.869Z,90.98
2023-05-14T21:43:45.643Z,91.10
2023-05-14T21:46:19.293Z,91.01
2023-05-14T21:48:53.279Z,91.32
2023-05-14T21:51:27.138Z,90.83
2023-05-14T21:54:00.688Z,91.27
2023-05-14T21:56:36.494Z,91.23
2023-05-14T21:59:09.881Z,91.47
2023-05-14T22:02:00.749Z,91.56
2023-05-14T22:04:36.849Z,91.59
2023-05-14T22:07:10.134Z,91.20
2023-05-14T22:09:43.765Z,91.38
2023-05-14T22:12:17.056Z,91.48
2023-05-14T22:14:50.985Z,91.70
2023-05-14T22:17:24.345Z,91.65
2023-05-14T22:19:57.862Z,91.63
2023-05-14T22:22:31.090Z,91.78
2023-05-14T22:25:04.740Z,92.04
2023-05-14T22:27:38.288Z,91.93
2023-05-14T22:30:13.492Z,91.93
2023-05-14T22:33:00.076Z,91.62
2023-05-14T22:35:33.957Z,91.90
2023-05-14T22:38:07.491Z,92.03
2023-05-14T22:40:41.271Z,92.17
2023-05-14T22:43:14.627Z,92.14
2023-05-14T22:45:48.652Z,92.17
2023-05-14T22:48:22.089Z,92.24
2023-05-14T22:50:55.565Z,92.30
2023-05-14T22:53:28.851Z,92.51
2023-05-14T22:56:02.160Z,92.44
2023-05-14T22:58:35.734Z,92.77
2023-05-14T23:01:09.290Z,92.96
2023-05-14T23:03:42.696Z,92.76
2023-05-14T23:06:16.438Z,92.87
2023-05-14T23:08:50.092Z,93.01
2023-05-14T23:11:23.779Z,92.92
2023-05-14T23:13:57.266Z,93.06
2023-05-14T23:16:30.797Z,93.03
2023-05-14T23:19:04.648Z,93.14
2023-05-14T23:21:38.828Z,93.39
2023-05-14T23:24:13.211Z,93.26
2023-05-14T23:26:46.502Z,93.01
2023-05-14T23:29:20.371Z,93.18
2023-05-14T23:31:54.460Z,92.92
2023-05-14T23:34:28.287Z,93.21
2023-05-14T23:37:02.142Z,93.41
2023-05-14T23:39:35.711Z,93.07
2023-05-14T23:42:09.509Z,92.96
2023-05-14T23:44:42.831Z,93.26
2023-05-14T23:47:16.749Z,93.33
2023-05-14T23:49:50.085Z,93.23
2023-05-14T23:52:24.056Z,93.38
2023-05-14T23:54:57.488Z,93.51
2023-05-14T23:57:30.856Z,93.93
